Time,TemperatureF,DewpointF,PressureIn,WindDirection,WindDirectionDegrees,WindSpeedMPH,WindSpeedGustMPH,Humidity,HourlyPrecipIn,Conditions,Clouds,dailyrainin,SoftwareType,DateUTC
2013-03-23 00:14:00,22.2,15.0,30.17,North,-999,2.0,4.0,73,0.00,,,0.00,weatherlink.com 1.10,2013-03-23 05:14:00,
2013-03-23 00:29:00,22.0,15.0,30.17,North,-999,0.0,1.0,74,0.00,,,0.00,weatherlink.com 1.10,2013-03-23 05:29:00,
2013-03-23 00:44:00,21.6,15.0,30.18,North,-999,0.0,3.0,74,0.00,,,0.00,weatherlink.com 1.10,2013-03-23 05:44:00,
2013-03-23 00:59:00,21.5,14.0,30.18,North,-999,1.0,3.0,74,0.00,,,0.00,weatherlink.com 1.10,2013-03-23 05:59:00,
2013-03-23 01:14:00,21.1,14.0,30.17,North,-999,0.0,1.0,75,0.00,,,0.00,weatherlink.com 1.10,2013-03-23 06:14:00,
2013-03-23 01:29:00,20.8,14.0,30.16,North,-999,2.0,2.0,75,0.00,,,0.00,weatherlink.com 1.10,2013-03-23 06:29:00,
2013-03-23 01:45:00,20.3,14.0,30.15,North,-999,2.0,2.0,76,0.00,,,0.00,weatherlink.com 1.10,2013-03-23 06:45:00,
2013-03-23 02:00:00,20.0,14.0,30.16,North,-999,2.0,2.0,76,0.00,,,0.00,weatherlink.com 1.10,2013-03-23 07:00:00,
2013-03-23 02:15:00,19.4,13.0,30.16,North,-999,1.0,1.0,76,0.00,,,0.00,weatherlink.com 1.10,2013-03-23 07:15:00,
2013-03-23 02:30:00,19.2,13.0,30.16,North,-999,1.0,2.0,76,0.00,,,0.00,weatherlink.com 1.10,2013-03-23 07:30:00,
2013-03-23 02:45:00,18.3,12.0,30.17,North,-999,2.0,3.0,77,0.00,,,0.00,weatherlink.com 1.10,2013-03-23 07:45:00,
2013-03-23 03:00:00,19.2,13.0,30.16,North,-999,0.0,4.0,75,0.00,,,0.00,weatherlink.com 1.10,2013-03-23 08:00:00,
2013-03-23 03:15:00,17.6,12.0,30.17,North,-999,2.0,3.0,78,0.00,,,0.00,weatherlink.com 1.10,2013-03-23 08:15:00,
2013-03-23 03:30:00,16.5,11.0,30.19,North,-999,3.0,4.0,79,0.00,,,0.00,weatherlink.com 1.10,2013-03-23 08:30:00,
2013-03-23 03:45:00,16.7,11.0,30.19,North,-999,3.0,4.0,78,0.00,,,0.00,weatherlink.com 1.10,2013-03-23 08:45:00,
2013-03-23 04:00:00,16.6,11.0,30.18,North,-999,3.0,4.0,79,0.00,,,0.00,weatherlink.com 1.10,2013-03-23 09:00:00,
2013-03-23 04:15:00,17.7,12.0,30.19,North,-999,1.0,6.0,78,0.00,,,0.00,weatherlink.com 1.10,2013-03-23 09:15:00,
2013-03-23 04:30:00,17.0,11.0,30.19,North,-999,3.0,5.0,77,0.00,,,0.00,weatherlink.com 1.10,2013-03-23 09:30:00,
2013-03-23 04:45:00,16.1,11.0,30.19,North,-999,0.0,2.0,79,0.00,,,0.00,weatherlink.com 1.10,2013-03-23 09:45:00,
2013-03-23 05:00:00,15.7,11.0,30.19,North,-999,1.0,1.0,80,0.00,,,0.00,weatherlink.com 1.10,2013-03-23 10:00:00,
2013-03-23 05:15:00,15.0,10.0,30.20,North,-999,2.0,3.0,80,0.00,,,0.00,weatherlink.com 1.10,2013-03-23 10:15:00,
2013-03-23 05:30:00,14.4,10.0,30.21,North,-999,2.0,4.0,82,0.00,,,0.00,weatherlink.com 1.10,2013-03-23 10:30:00,
2013-03-23 05:45:00,14.3,10.0,30.20,North,-999,1.0,3.0,83,0.00,,,0.00,weatherlink.com 1.10,2013-03-23 10:45:00,
2013-03-23 06:00:00,13.6,9.0,30.21,North,-999,0.0,1.0,83,0.00,,,0.00,weatherlink.com 1.10,2013-03-23 11:00:00,
2013-03-23 06:15:00,13.7,10.0,30.20,North,-999,1.0,1.0,84,0.00,,,0.00,weatherlink.com 1.10,2013-03-23 11:15:00,
2013-03-23 06:30:00,12.9,9.0,30.19,North,-999,0.0,1.0,83,0.00,,,0.00,weatherlink.com 1.10,2013-03-23 11:30:00,
2013-03-23 06:45:00,12.7,9.0,30.19,North,-999,0.0,0.0,85,0.00,,,0.00,weatherlink.com 1.10,2013-03-23 11:45:00,
2013-03-23 07:00:00,12.5,9.0,30.18,North,-999,2.0,2.0,84,0.00,,,0.00,weatherlink.com 1.10,2013-03-23 12:00:00,
2013-03-23 07:15:00,12.6,9.0,30.20,North,-999,0.0,1.0,86,0.00,,,0.00,weatherlink.com 1.10,2013-03-23 12:15:00,
2013-03-23 07:30:00,12.9,9.0,30.20,North,-999,0.0,2.0,84,0.00,,,0.00,weatherlink.com 1.10,2013-03-23 12:30:00,
2013-03-23 07:45:00,12.8,9.0,30.20,North,-999,2.0,3.0,83,0.00,,,0.00,weatherlink.com 1.10,2013-03-23 12:45:00,
2013-03-23 08:00:00,13.4,9.0,30.20,North,-999,0.0,1.0,83,0.00,,,0.00,weatherlink.com 1.10,2013-03-23 13:00:00,
2013-03-23 08:15:00,13.5,10.0,30.21,North,-999,0.0,3.0,84,0.00,,,0.00,weatherlink.com 1.10,2013-03-23 13:15:00,
2013-03-23 08:30:00,15.4,10.0,30.21,North,-999,1.0,3.0,79,0.00,,,0.00,weatherlink.com 1.10,2013-03-23 13:30:00,
2013-03-23 08:45:00,15.4,10.0,30.22,North,-999,0.0,3.0,78,0.00,,,0.00,weatherlink.com 1.10,2013-03-23 13:45:00,
2013-03-23 09:00:00,15.9,10.0,30.22,North,-999,2.0,4.0,77,0.00,,,0.00,weatherlink.com 1.10,2013-03-23 14:00:00,
2013-03-23 09:15:00,17.1,10.0,30.23,North,-999,4.0,5.0,75,0.00,,,0.00,weatherlink.com 1.10,2013-03-23 14:15:00,
2013-03-23 09:30:00,17.8,11.0,30.23,North,-999,2.0,5.0,73,0.00,,,0.00,weatherlink.com 1.10,2013-03-23 14:30:00,
2013-03-23 09:45:00,19.5,11.0,30.22,North,-999,2.0,3.0,70,0.00,,,0.00,weatherlink.com 1.10,2013-03-23 14:45:00,
2013-03-23 10:00:00,21.3,12.0,30.22,North,-999,0.0,3.0,67,0.00,,,0.00,weatherlink.com 1.10,2013-03-23 15:00:00,
2013-03-23 10:15:00,22.7,13.0,30.22,North,-999,1.0,3.0,67,0.00,,,0.00,weatherlink.com 1.10,2013-03-23 15:15:00,
2013-03-23 10:31:00,23.1,13.0,30.22,North,-999,2.0,2.0,65,0.00,,,0.00,weatherlink.com 1.10,2013-03-23 15:31:00,
2013-03-23 10:46:00,24.5,13.0,30.22,North,-999,2.0,3.0,63,0.00,,,0.00,weatherlink.com 1.10,2013-03-23 15:46:00,
2013-03-23 11:01:00,25.2,14.0,30.22,North,-999,1.0,4.0,63,0.00,,,0.00,weatherlink.com 1.10,2013-03-23 16:01:00,
2013-03-23 11:16:00,24.8,14.0,30.22,North,-999,2.0,3.0,63,0.00,,,0.00,weatherlink.com 1.10,2013-03-23 16:16:00,
2013-03-23 11:31:00,25.9,14.0,30.22,North,-999,1.0,1.0,61,0.00,,,0.00,weatherlink.com 1.10,2013-03-23 16:31:00,
2013-03-23 12:31:00,29.4,15.0,30.22,North,-999,4.0,8.0,55,0.00,,,0.00,weatherlink.com 1.10,2013-03-23 17:31:00,
2013-03-23 13:31:00,31.7,15.0,30.21,North,-999,4.0,5.0,50,0.00,,,0.00,weatherlink.com 1.10,2013-03-23 18:31:00,
2013-03-23 13:46:00,32.5,15.0,30.20,North,-999,4.0,5.0,49,0.00,,,0.00,weatherlink.com 1.10,2013-03-23 18:46:00,
2013-03-23 14:01:00,33.6,15.0,30.20,North,-999,1.0,4.0,47,0.00,,,0.00,weatherlink.com 1.10,2013-03-23 19:01:00,
2013-03-23 14:16:00,33.2,15.0,30.19,North,-999,4.0,5.0,47,0.00,,,0.00,weatherlink.com 1.10,2013-03-23 19:16:00,
2013-03-23 14:31:00,34.4,15.0,30.19,North,-999,1.0,4.0,46,0.00,,,0.00,weatherlink.com 1.10,2013-03-23 19:31:00,
2013-03-23 14:46:00,35.5,15.0,30.19,North,-999,1.0,4.0,44,0.00,,,0.00,weatherlink.com 1.10,2013-03-23 19:46:00,
2013-03-23 15:16:00,33.9,13.0,30.17,North,-999,1.0,1.0,43,0.00,,,0.00,weatherlink.com 1.10,2013-03-23 20:16:00,
2013-03-23 15:31:00,34.3,14.0,30.17,North,-999,1.0,2.0,44,0.00,,,0.00,weatherlink.com 1.10,2013-03-23 20:31:00,
2013-03-23 16:01:00,33.7,14.0,30.17,North,-999,2.0,5.0,44,0.00,,,0.00,weatherlink.com 1.10,2013-03-23 21:01:00,
2013-03-23 16:16:00,33.3,15.0,30.17,North,-999,3.0,5.0,47,0.00,,,0.00,weatherlink.com 1.10,2013-03-23 21:16:00,
2013-03-23 16:31:00,32.9,15.0,30.17,North,-999,4.0,7.0,47,0.00,,,0.00,weatherlink.com 1.10,2013-03-23 21:31:00,
2013-03-23 16:46:00,32.9,15.0,30.17,North,-999,3.0,6.0,47,0.00,,,0.00,weatherlink.com 1.10,2013-03-23 21:46:00,
2013-03-23 17:01:00,32.6,16.0,30.17,North,-999,5.0,6.0,50,0.00,,,0.00,weatherlink.com 1.10,2013-03-23 22:01:00,
2013-03-23 17:16:00,32.3,15.0,30.17,North,-999,3.0,6.0,50,0.00,,,0.00,weatherlink.com 1.10,2013-03-23 22:16:00,
2013-03-23 17:31:00,32.0,17.0,30.17,North,-999,6.0,7.0,54,0.00,,,0.00,weatherlink.com 1.10,2013-03-23 22:31:00,
2013-03-23 17:46:00,31.6,17.0,30.18,North,-999,6.0,7.0,56,0.00,,,0.00,weatherlink.com 1.10,2013-03-23 22:46:00,
2013-03-23 18:16:00,31.2,19.0,30.18,North,-999,5.0,6.0,60,0.00,,,0.00,weatherlink.com 1.10,2013-03-23 23:16:00,
2013-03-23 18:31:00,30.9,19.0,30.18,North,-999,7.0,8.0,62,0.00,,,0.00,weatherlink.com 1.10,2013-03-23 23:31:00,
2013-03-23 18:47:00,30.9,18.0,30.18,North,-999,3.0,7.0,59,0.00,,,0.00,weatherlink.com 1.10,2013-03-23 23:47:00,
2013-03-23 19:02:00,30.2,19.0,30.18,North,-999,5.0,9.0,64,0.00,,,0.00,weatherlink.com 1.10,2013-03-24 00:02:00,
2013-03-23 19:17:00,29.7,18.0,30.18,North,-999,7.0,7.0,61,0.00,,,0.00,weatherlink.com 1.10,2013-03-24 00:17:00,
2013-03-23 19:32:00,29.2,18.0,30.18,North,-999,2.0,7.0,62,0.00,,,0.00,weatherlink.com 1.10,2013-03-24 00:32:00,
2013-03-23 19:47:00,28.7,18.0,30.19,North,-999,3.0,8.0,64,0.00,,,0.00,weatherlink.com 1.10,2013-03-24 00:47:00,
2013-03-23 20:02:00,28.2,18.0,30.19,North,-999,3.0,7.0,66,0.00,,,0.00,weatherlink.com 1.10,2013-03-24 01:02:00,
2013-03-23 20:17:00,27.9,18.0,30.19,North,-999,3.0,5.0,66,0.00,,,0.00,weatherlink.com 1.10,2013-03-24 01:17:00,
2013-03-23 20:47:00,27.4,19.0,30.19,North,-999,5.0,6.0,72,0.00,,,0.00,weatherlink.com 1.10,2013-03-24 01:47:00,
2013-03-23 21:02:00,27.3,21.0,30.19,North,-999,2.0,9.0,76,0.00,,,0.00,weatherlink.com 1.10,2013-03-24 02:02:00,
2013-03-23 21:17:00,26.9,21.0,30.19,North,-999,4.0,8.0,78,0.00,,,0.00,weatherlink.com 1.10,2013-03-24 02:17:00,
2013-03-23 21:32:00,26.4,21.0,30.19,North,-999,3.0,7.0,79,0.00,,,0.00,weatherlink.com 1.10,2013-03-24 02:32:00,
2013-03-23 21:47:00,26.2,21.0,30.19,North,-999,2.0,6.0,80,0.00,,,0.00,weatherlink.com 1.10,2013-03-24 02:47:00,
2013-03-23 22:02:00,26.0,20.0,30.19,North,-999,1.0,6.0,79,0.00,,,0.00,weatherlink.com 1.10,2013-03-24 03:02:00,
2013-03-23 22:17:00,26.0,20.0,30.19,North,-999,1.0,5.0,78,0.00,,,0.00,weatherlink.com 1.10,2013-03-24 03:17:00,
2013-03-23 22:32:00,25.8,20.0,30.19,North,-999,3.0,6.0,79,0.00,,,0.00,weatherlink.com 1.10,2013-03-24 03:32:00,
2013-03-23 22:50:00,25.6,20.0,30.19,North,-999,5.0,8.0,79,0.00,,,0.00,weatherlink.com 1.10,2013-03-24 03:50:00,
2013-03-23 23:02:00,25.5,20.0,30.19,North,-999,3.0,6.0,80,0.00,,,0.00,weatherlink.com 1.10,2013-03-24 04:02:00,
2013-03-23 23:17:00,25.3,20.0,30.18,North,-999,3.0,4.0,80,0.00,,,0.00,weatherlink.com 1.10,2013-03-24 04:17:00,
2013-03-23 23:32:00,25.3,20.0,30.18,North,-999,2.0,5.0,80,0.00,,,0.00,weatherlink.com 1.10,2013-03-24 04:32:00,
2013-03-23 23:47:00,25.3,20.0,30.18,North,-999,1.0,5.0,80,0.00,,,0.00,weatherlink.com 1.10,2013-03-24 04:47:00,